American B738 at Charlotte on May 19th 2022, temporary runway excursion on rejected takeoff

Last Update: May 20, 2022 / 16:56:55 GMT/Zulu time

Bookmark this article
Incident Facts

Date of incident
May 19, 2022

Classification
Incident

Flight number
AA-775

Aircraft Registration
N917NN

Aircraft Type
Boeing 737-800

ICAO Type Designator
B738

Airport ICAO Code
KCLT

An American Airlines Boeing 737-800, registration N917NN performing flight AA-775 from Charlotte,NC to Miami,FL (USA) with 172 passengers and 6 crew, was accelerating for takeoff from Charlotte's runway 18L when the crew rejected takeoff at low speed (about 40 knots over ground). The aircraft veered temporarily left off the runway, rolled over grass and returned onto the runway surface. The crew advised they did not need assistance and just needed to vacate the runway. The aircraft returned to the apron.

A number of aircraft on final approach to runway 18L needed to go around as result of the runway excursion.

A replacement Boeing 737-800 registration N893NN reached Miami with a delay of about 3 hours.

The occurrence aircraft is still on the ground in Charlotte about 23 hours after the rejected takeoff.

Metars:
KCLT 192052Z 24007KT 10SM FEW065 FEW250 33/18 A2980 RMK SLP079 T03330183 58005=
KCLT 191952Z 24013KT 10SM FEW070 SCT250 33/17 A2981 RMK SLP083 T03330172=
KCLT 191752Z 25006KT 10SM FEW060 SCT250 32/18 A2985 RMK SLP098 60000 T03220183 10328 20211 58005=
KCLT 191652Z 28008KT 10SM FEW050 SCT250 32/18 A2986 RMK SLP101 T03220183=
KCLT 191552Z VRB04 10SM FEW180 SCT250 31/18 A2987 RMK SLP103 T03060183=
KCLT 191452Z 26003KT 10SM SCT180 SCT250 29/18 A2987 RMK SLP104 60000 T02890183 55001=
KCLT 191352Z 26005KT 10SM FEW180 FEW250 27/17 A2987 RMK SLP104 T02670172=
Aircraft Registration Data
Registration mark
N917NN
Country of Registration
United States
Date of Registration
Ih kdmmcdqpifbfk Subscribe to unlock
Manufacturer
BOEING
Aircraft Model / Type
737-823
Number of Seats
ICAO Aircraft Type
B738
Year of Manufacture
Serial Number
Aircraft Address / Mode S Code (HEX)
Engine Count
Engine Manufacturer
Engine Model
Engine Type
Pounds of Thrust
Main Owner
Inhbmjq hpAjhj Alm cmipihjnmjdccip ipmmjkf ghibfglgdpdhpfqcgknghfgemhlpqd A gmmbimh Subscribe to unlock
Incident Facts

Date of incident
May 19, 2022

Classification
Incident

Flight number
AA-775

Aircraft Registration
N917NN

Aircraft Type
Boeing 737-800

ICAO Type Designator
B738

Airport ICAO Code
KCLT

This article is published under license from Avherald.com. © of text by Avherald.com.
Article source

You can read 4 more free articles without a subscription.

Subscribe now and continue reading without any limits!

Are you a subscriber?
Login
Subscribe

Read unlimited articles and receive our daily update briefing. Gain better insights into what is happening in commercial aviation safety.

Free newsletter

Want to know more and stay ahead? Get our free weekly newsletter and join 5212 existing subscribers.

By subscribing, you accept our terms and conditions and confirm that you've read our privacy policy.

Send tip

Support AeroInside by sending a small tip amount.

Related articles

Newest articles

Subscribe today

Are you researching aviation incidents? Get access to AeroInside Insights, unlimited read access and receive the daily newsletter.

Pick your plan and subscribe

Partner

Blockaviation logo

A new way to document and demonstrate airworthiness compliance and aircraft value. Find out more.

Virtual Speech logo

ELITE Simulation Solutions is a leading global provider of Flight Simulation Training Devices, IFR training software as well as flight controls and related services. Find out more.

Get updates

Never miss an article from AeroInside. Subscribe to our free weekly newsletter and join 5212 existing subscribers.

By subscribing, you accept our terms and conditions and that you've read our privacy policy.

AeroInside Blog
Popular aircraft
Airbus A320
Boeing 737-800
Boeing 737-800 MAX
Popular airlines
American Airlines
United
Delta
Air Canada
Lufthansa
British Airways